Pagina principale
METAR-TAF:

METAR-TAF

Aeroporti :

Sharurah, Arabia Saudita

latitudine: 17-28N, longitudine: 047-07E, altezza: 720 m

Osservazione

Il bollettino è stato emesso 28 minuti fa, alle 19:00 UTC
Vento 8 kt da est/sud-est
Temperature 27°C
Umidità 24%
Pressione 1015 hPa
Visibilità 10 km o più
nessuna nube inferiore a 1500 m e nessun cumulonembo

METAR: OESH 241900Z 12008KT CAVOK 27/05 Q1015 NOSIG

Ora: 22:28 (19:28 UTC)

Previsione

Il bollettino è stato emesso 8 ore e 28 minuti fa, alle 11:00 UTC
Previsione valida dal 24 alle 12 UTC al 25 alle 18 UTC
Vento 6 kt da sud-est con raffiche fino a 16 kt
Visibilità: 7000 m
Temporaneamente
dal 24 alle 12 UTC al 24 alle 18 UTC
Visibilità: 4000 m
polvere diffusa, Scaccia polvere alto
Evoluzione graduale
dal 24 alle 20 UTC al 24 alle 22 UTC
Vento 8 kt da sud-ovest

TAF: OESH 241100Z 2412/2518 14006G16KT 7000 NSC TEMPO 2412/2418 4000 DU BLDU BECMG 2420/2422 22008KT

Osservazioni e previsioni meteorologiche di più di 4000 aeroporti (messaggi METAR e TAF).

Le stazioni disponibili sono rappresentate dai dischi gialli e rossi sulla carta.

Puntare il mouse per vedere il nome della stazione.

Clicca sopra per visualizzare le osservazioni e previsioni meteorologiche.

Per cambiare la mappa : fare clic sui pulsanti verdi con una croce nera per ingrandire, il pulsante verde con un trattino per diminuire, o sulla freccia verde per le mappe adiacenti.


METAR-TAF: